createdAt,value
2023-04-21T00:01:44.074Z,3.20
2023-04-21T00:04:13.518Z,3.35
2023-04-21T00:06:42.700Z,2.72
2023-04-21T00:09:12.280Z,3.63
2023-04-21T00:11:41.642Z,3.58
2023-04-21T00:14:09.842Z,3.05
2023-04-21T00:16:37.808Z,3.55
2023-04-21T00:19:07.110Z,3.50
2023-04-21T00:21:35.390Z,3.20
2023-04-21T00:24:03.702Z,3.78
2023-04-21T00:26:33.332Z,3.50
2023-04-21T00:29:01.495Z,3.22
2023-04-21T00:31:31.603Z,3.08
2023-04-21T00:33:59.871Z,3.45
2023-04-21T00:36:28.601Z,3.40
2023-04-21T00:38:56.818Z,3.13
2023-04-21T00:41:24.941Z,3.35
2023-04-21T00:44:06.124Z,3.83
2023-04-21T00:46:34.355Z,3.60
2023-04-21T00:49:06.143Z,3.22
2023-04-21T00:51:35.328Z,3.75
2023-04-21T00:54:06.245Z,3.50
2023-04-21T00:56:37.346Z,3.05
2023-04-21T00:59:06.759Z,3.40
2023-04-21T01:01:36.485Z,3.75
2023-04-21T01:04:06.346Z,2.78
2023-04-21T01:06:35.158Z,3.03
2023-04-21T01:09:05.783Z,3.33
2023-04-21T01:11:34.443Z,3.67
2023-04-21T01:14:02.411Z,3.75
2023-04-21T01:16:33.680Z,3.28
2023-04-21T01:19:02.458Z,3.67
2023-04-21T01:21:32.058Z,2.90
2023-04-21T01:24:04.017Z,3.72
2023-04-21T01:26:32.100Z,3.45
2023-04-21T01:29:00.055Z,3.92
2023-04-21T01:31:28.045Z,4.07
2023-04-21T01:33:56.118Z,3.67
2023-04-21T01:36:24.523Z,3.67
2023-04-21T01:38:53.787Z,3.92
2023-04-21T01:41:25.178Z,3.67
2023-04-21T01:43:55.593Z,4.22
2023-04-21T01:46:25.737Z,4.20
2023-04-21T01:48:53.937Z,3.78
2023-04-21T01:51:22.008Z,3.50
2023-04-21T01:53:50.199Z,4.05
2023-04-21T01:56:18.937Z,4.20
2023-04-21T01:58:48.403Z,3.97
2023-04-21T02:01:16.526Z,3.33
2023-04-21T02:03:46.379Z,3.40
2023-04-21T02:06:15.404Z,3.38
2023-04-21T02:08:43.458Z,3.45
2023-04-21T02:11:11.489Z,4.07
2023-04-21T02:13:41.949Z,4.00
2023-04-21T02:16:13.871Z,5.15
2023-04-21T02:18:42.428Z,3.58
2023-04-21T02:21:10.477Z,3.83
2023-04-21T02:23:38.538Z,3.88
2023-04-21T02:26:06.817Z,3.92
2023-04-21T02:28:35.061Z,4.47
2023-04-21T02:31:03.218Z,4.30
2023-04-21T02:33:36.569Z,4.43
2023-04-21T02:36:06.189Z,4.53
2023-04-21T02:38:34.191Z,4.05
2023-04-21T02:41:02.664Z,4.03
2023-04-21T02:43:30.675Z,5.05
2023-04-21T02:45:58.807Z,3.72
2023-04-21T02:48:27.005Z,4.43
2023-04-21T02:50:56.330Z,4.68
2023-04-21T02:53:24.385Z,4.43
2023-04-21T02:55:53.867Z,4.88
2023-04-21T02:58:22.230Z,3.78
2023-04-21T03:00:50.254Z,4.30
2023-04-21T03:03:18.487Z,4.40
2023-04-21T03:05:46.790Z,4.90
2023-04-21T03:08:16.255Z,5.18
2023-04-21T03:10:44.367Z,4.10
2023-04-21T03:13:12.312Z,5.38
2023-04-21T03:15:40.478Z,4.50
2023-04-21T03:18:08.382Z,5.72
2023-04-21T03:20:36.354Z,4.75
2023-04-21T03:23:04.587Z,4.55
2023-04-21T03:25:34.243Z,5.13
2023-04-21T03:28:03.320Z,5.03
2023-04-21T03:30:31.408Z,5.22
2023-04-21T03:32:59.855Z,3.85
2023-04-21T03:35:28.261Z,5.15
2023-04-21T03:37:59.049Z,5.70
2023-04-21T03:42:56.926Z,3.60
2023-04-21T03:45:25.408Z,4.68
2023-04-21T03:47:55.334Z,4.65
2023-04-21T03:50:23.615Z,5.43
2023-04-21T03:52:51.598Z,5.50
2023-04-21T03:55:20.061Z,5.07
2023-04-21T03:57:48.151Z,5.40
2023-04-21T04:00:17.638Z,5.80
2023-04-21T04:02:46.667Z,5.47
2023-04-21T04:05:14.883Z,5.38
2023-04-21T04:07:42.958Z,5.68
2023-04-21T04:10:11.610Z,4.65
2023-04-21T04:12:39.595Z,5.28
2023-04-21T04:15:09.279Z,5.80
2023-04-21T04:17:38.720Z,5.72
2023-04-21T04:20:08.478Z,5.78
2023-04-21T04:22:37.268Z,5.72
2023-04-21T04:25:05.863Z,5.38
2023-04-21T04:27:34.317Z,5.60
2023-04-21T04:32:31.457Z,4.65
2023-04-21T04:35:00.940Z,6.13
2023-04-21T04:37:28.924Z,4.75
2023-04-21T04:39:57.001Z,5.60
2023-04-21T04:42:25.952Z,4.95
2023-04-21T04:44:54.756Z,5.45
2023-04-21T04:47:22.928Z,4.80
2023-04-21T04:49:50.926Z,5.60
2023-04-21T04:52:20.372Z,5.22
2023-04-21T04:54:48.460Z,5.80
2023-04-21T04:57:16.444Z,5.45
2023-04-21T04:59:44.420Z,6.82
2023-04-21T05:02:12.976Z,5.45
2023-04-21T05:04:41.442Z,5.90
2023-04-21T05:07:09.406Z,5.90
2023-04-21T05:09:38.896Z,6.97
2023-04-21T05:12:07.272Z,5.00
2023-04-21T05:14:35.571Z,6.43
2023-04-21T05:17:03.643Z,6.32
2023-04-21T05:19:31.692Z,6.07
2023-04-21T05:22:01.779Z,6.20
2023-04-21T05:24:29.791Z,5.78
2023-04-21T05:26:59.307Z,6.07
2023-04-21T05:29:27.624Z,7.28
2023-04-21T05:31:55.851Z,7.15
2023-04-21T05:34:24.078Z,5.43
2023-04-21T05:36:52.303Z,6.93
2023-04-21T05:39:20.521Z,7.38
2023-04-21T05:41:48.536Z,6.63
2023-04-21T05:44:19.359Z,7.75
2023-04-21T05:46:47.656Z,6.93
2023-04-21T05:49:15.741Z,6.90
2023-04-21T05:51:43.807Z,7.30
2023-04-21T05:54:12.041Z,9.00
2023-04-21T05:56:40.289Z,7.00
2023-04-21T05:59:08.468Z,7.65
2023-04-21T06:01:37.969Z,7.78
2023-04-21T06:04:06.281Z,7.30
2023-04-21T06:06:35.050Z,8.35
2023-04-21T06:09:03.272Z,6.63
2023-04-21T06:11:31.421Z,8.48
2023-04-21T06:13:59.929Z,8.25
2023-04-21T06:16:28.062Z,7.88
2023-04-21T06:18:58.969Z,10.23
2023-04-21T06:21:27.253Z,8.32
2023-04-21T06:23:55.417Z,10.30
2023-04-21T06:26:23.325Z,10.57
2023-04-21T06:28:51.406Z,10.32
2023-04-21T06:31:19.870Z,10.80
2023-04-21T06:36:18.133Z,8.18
2023-04-21T06:38:46.796Z,8.32
2023-04-21T06:41:14.801Z,9.48
2023-04-21T06:43:42.937Z,9.23
2023-04-21T06:46:11.517Z,7.78
2023-04-21T06:48:39.849Z,9.60
2023-04-21T06:51:07.949Z,9.20
2023-04-21T06:53:37.573Z,8.43
2023-04-21T06:56:05.980Z,7.68
2023-04-21T06:58:34.157Z,7.97
2023-04-21T07:01:02.396Z,8.60
2023-04-21T07:03:30.706Z,8.90
2023-04-21T07:05:58.804Z,8.07
2023-04-21T07:08:27.354Z,9.10
2023-04-21T07:10:56.633Z,9.20
2023-04-21T07:13:24.884Z,9.23
2023-04-21T07:15:53.523Z,9.32
2023-04-21T07:18:21.582Z,7.35
2023-04-21T07:20:49.487Z,9.52
2023-04-21T07:23:17.573Z,8.20
2023-04-21T07:25:45.589Z,8.07
2023-04-21T07:28:16.148Z,8.32
2023-04-21T07:30:44.299Z,8.32
2023-04-21T07:33:12.365Z,9.15
2023-04-21T07:35:40.432Z,9.55
2023-04-21T07:38:08.523Z,6.55
2023-04-21T07:40:36.802Z,7.07
2023-04-21T07:43:04.789Z,8.20
2023-04-21T07:45:34.390Z,8.68
2023-04-21T07:48:02.398Z,8.65
2023-04-21T07:50:30.450Z,9.20
2023-04-21T07:52:58.851Z,8.20
2023-04-21T07:55:27.024Z,9.38
2023-04-21T07:57:55.275Z,8.68
2023-04-21T08:00:23.321Z,8.23
2023-04-21T08:02:52.852Z,6.85
2023-04-21T08:05:21.458Z,7.13
2023-04-21T08:07:49.807Z,7.10
2023-04-21T08:10:17.877Z,9.05
2023-04-21T08:12:45.911Z,7.95
2023-04-21T08:15:14.142Z,7.28
2023-04-21T08:17:42.351Z,6.63
2023-04-21T08:20:13.110Z,9.32
2023-04-21T08:22:41.271Z,8.18
2023-04-21T08:25:09.727Z,6.97
2023-04-21T08:30:08.630Z,6.20
2023-04-21T08:32:36.701Z,6.68
2023-04-21T08:35:05.206Z,7.72
2023-04-21T08:37:37.319Z,8.15
2023-04-21T08:40:05.904Z,6.47
2023-04-21T08:42:35.007Z,8.93
2023-04-21T08:45:03.035Z,7.65
2023-04-21T08:47:31.449Z,8.10
2023-04-21T08:50:00.745Z,8.25
2023-04-21T08:52:28.667Z,9.55
2023-04-21T08:54:58.575Z,7.85
2023-04-21T08:57:26.496Z,6.88
2023-04-21T08:59:54.562Z,9.20
2023-04-21T09:02:23.471Z,7.13
2023-04-21T09:04:53.028Z,8.25
2023-04-21T09:07:36.020Z,7.97
2023-04-21T09:10:07.240Z,7.97
2023-04-21T09:12:35.376Z,7.00
2023-04-21T09:15:06.185Z,7.90
2023-04-21T09:17:36.543Z,7.47
2023-04-21T09:20:15.890Z,6.63
2023-04-21T09:22:44.098Z,7.00
2023-04-21T09:25:17.553Z,7.20
2023-04-21T09:27:45.705Z,6.85
2023-04-21T09:30:14.815Z,6.47
2023-04-21T09:32:43.012Z,7.13
2023-04-21T09:35:12.042Z,5.88
2023-04-21T09:37:41.166Z,6.32
2023-04-21T09:40:13.695Z,6.63
2023-04-21T09:42:44.949Z,7.00
2023-04-21T09:47:52.030Z,5.70
2023-04-21T09:50:41.763Z,5.50
2023-04-21T09:53:15.657Z,5.55
2023-04-21T09:55:44.311Z,6.57
2023-04-21T09:58:16.569Z,5.75
2023-04-21T10:00:45.009Z,5.70
2023-04-21T10:03:15.640Z,6.03
2023-04-21T10:05:44.615Z,6.40
2023-04-21T10:08:13.468Z,5.80
2023-04-21T10:10:42.045Z,6.40
2023-04-21T10:13:18.608Z,6.53
2023-04-21T10:15:46.808Z,6.03
2023-04-21T10:18:17.594Z,6.25
2023-04-21T10:20:53.151Z,6.20
2023-04-21T10:23:28.958Z,5.13
2023-04-21T10:26:03.833Z,6.10
2023-04-21T10:28:43.982Z,6.32
2023-04-21T10:31:22.791Z,5.18
2023-04-21T10:34:14.251Z,6.53
2023-04-21T10:36:53.099Z,6.85
2023-04-21T10:39:28.382Z,5.90
2023-04-21T10:41:58.273Z,6.28
2023-04-21T10:44:30.178Z,6.00
2023-04-21T10:47:00.482Z,6.63
2023-04-21T10:49:30.453Z,5.90
2023-04-21T10:52:06.701Z,5.13
2023-04-21T10:54:41.987Z,5.13
2023-04-21T10:57:12.344Z,5.18
2023-04-21T10:59:42.006Z,5.32
2023-04-21T11:02:13.065Z,5.50
2023-04-21T11:04:45.368Z,5.25
2023-04-21T11:07:16.445Z,5.20
2023-04-21T11:09:45.789Z,4.78
2023-04-21T11:12:15.839Z,5.03
2023-04-21T11:14:48.133Z,5.40
2023-04-21T11:17:18.312Z,5.40
2023-04-21T11:19:47.205Z,4.45
2023-04-21T11:22:15.252Z,5.90
2023-04-21T11:24:46.318Z,5.57
2023-04-21T11:27:15.586Z,4.80
2023-04-21T11:29:45.811Z,5.20
2023-04-21T11:32:15.513Z,5.10
2023-04-21T11:34:43.976Z,4.70
2023-04-21T11:37:16.896Z,5.18
2023-04-21T11:39:45.596Z,4.35
2023-04-21T11:42:21.663Z,5.43
2023-04-21T11:44:51.381Z,6.32
2023-04-21T11:47:20.827Z,4.95
2023-04-21T11:49:50.697Z,5.82
2023-04-21T11:52:26.318Z,5.65
2023-04-21T11:55:01.322Z,5.38
2023-04-21T11:57:31.112Z,5.32
2023-04-21T12:00:02.656Z,5.85
2023-04-21T12:02:33.729Z,5.53
2023-04-21T12:05:03.733Z,5.38
2023-04-21T12:07:33.180Z,5.50
2023-04-21T12:10:02.937Z,5.70
2023-04-21T12:12:32.036Z,5.43
2023-04-21T12:15:04.414Z,4.90
2023-04-21T12:17:38.106Z,5.38
2023-04-21T12:20:08.101Z,5.20
2023-04-21T12:22:36.213Z,4.32
2023-04-21T12:25:04.740Z,5.20
2023-04-21T12:27:32.702Z,2.60
2023-04-21T12:32:30.910Z,4.93
2023-04-21T12:35:00.623Z,4.38
2023-04-21T12:37:28.526Z,5.00
2023-04-21T12:39:57.399Z,4.88
2023-04-21T12:42:25.745Z,4.47
2023-04-21T12:44:53.814Z,4.97
2023-04-21T12:47:23.415Z,4.75
2023-04-21T12:49:51.540Z,4.93
2023-04-21T12:54:47.385Z,4.32
2023-04-21T12:57:16.029Z,4.75
2023-04-21T12:59:46.237Z,4.13
2023-04-21T13:02:14.674Z,4.25
2023-04-21T13:04:44.390Z,4.30
2023-04-21T13:07:12.715Z,3.45
2023-04-21T13:12:08.797Z,3.97
2023-04-21T13:14:36.850Z,3.83
2023-04-21T13:17:05.370Z,4.13
2023-04-21T13:19:33.742Z,4.07
2023-04-21T13:22:03.583Z,4.53
2023-04-21T13:24:31.676Z,3.58
2023-04-21T13:26:59.997Z,4.32
2023-04-21T13:29:30.233Z,3.83
2023-04-21T13:31:58.503Z,3.70
2023-04-21T13:34:26.655Z,3.88
2023-04-21T13:39:24.570Z,3.38
2023-04-21T13:41:54.099Z,3.83
2023-04-21T13:44:22.612Z,3.95
2023-04-21T13:46:52.346Z,5.00
2023-04-21T13:49:21.761Z,4.45
2023-04-21T13:51:49.802Z,5.28
2023-04-21T13:56:47.397Z,4.13
2023-04-21T13:59:16.597Z,4.47
2023-04-21T14:01:45.777Z,4.53
2023-04-21T14:06:41.962Z,3.63
2023-04-21T14:09:10.774Z,3.90
2023-04-21T14:11:38.972Z,3.35
2023-04-21T14:14:10.280Z,3.97
2023-04-21T14:16:39.096Z,3.42
2023-04-21T14:19:07.591Z,3.40
2023-04-21T14:21:35.748Z,4.05
2023-04-21T14:24:03.938Z,3.38
2023-04-21T14:26:32.666Z,3.45
2023-04-21T14:29:01.677Z,3.65
2023-04-21T14:31:31.158Z,3.22
2023-04-21T14:33:59.132Z,3.63
2023-04-21T14:36:28.034Z,3.13
2023-04-21T14:38:56.504Z,4.28
2023-04-21T14:41:24.774Z,3.80
2023-04-21T14:43:53.939Z,3.25
2023-04-21T14:46:22.141Z,3.80
2023-04-21T14:48:51.655Z,4.32
2023-04-21T14:51:19.763Z,4.18
2023-04-21T14:53:48.248Z,5.28
2023-04-21T14:56:16.795Z,6.80
2023-04-21T14:58:44.777Z,6.15
2023-04-21T15:01:14.201Z,6.70
2023-04-21T15:03:43.228Z,6.47
2023-04-21T15:06:12.881Z,5.53
2023-04-21T15:08:41.163Z,7.18
2023-04-21T15:11:09.269Z,7.05
2023-04-21T15:13:37.378Z,6.72
2023-04-21T15:16:05.836Z,7.07
2023-04-21T15:18:33.962Z,7.28
2023-04-21T15:21:02.557Z,7.07
2023-04-21T15:23:33.801Z,7.57
2023-04-21T15:26:01.976Z,7.40
2023-04-21T15:28:30.065Z,7.43
2023-04-21T15:30:58.016Z,7.25
2023-04-21T15:33:26.131Z,7.07
2023-04-21T15:35:54.225Z,7.28
2023-04-21T15:38:22.272Z,7.55
2023-04-21T15:43:29.119Z,6.88
2023-04-21T15:45:57.253Z,6.72
2023-04-21T15:48:25.620Z,8.57
2023-04-21T15:50:53.824Z,5.53
2023-04-21T15:53:21.709Z,3.25
2023-04-21T15:55:51.912Z,4.40
2023-04-21T15:58:22.135Z,4.78
2023-04-21T16:00:50.198Z,4.43
2023-04-21T16:05:46.526Z,5.05
2023-04-21T16:08:14.672Z,2.55
2023-04-21T16:10:42.716Z,2.05
2023-04-21T16:15:40.312Z,1.73
2023-04-21T16:18:08.598Z,0.93
2023-04-21T16:20:37.731Z,1.42
2023-04-21T16:23:06.079Z,0.90
2023-04-21T16:25:34.210Z,1.30
2023-04-21T16:30:31.672Z,0.70
2023-04-21T16:33:00.098Z,0.73
2023-04-21T16:37:56.674Z,1.00
2023-04-21T16:40:25.541Z,0.55
2023-04-21T16:42:54.064Z,0.75
2023-04-21T16:45:22.242Z,0.95
2023-04-21T16:47:51.867Z,0.93
2023-04-21T16:50:21.295Z,1.05
2023-04-21T16:52:49.338Z,0.98
2023-04-21T16:55:17.554Z,0.82
2023-04-21T16:57:46.237Z,1.05
2023-04-21T17:00:18.280Z,0.95
2023-04-21T17:02:46.662Z,1.33
2023-04-21T17:05:16.487Z,1.25
2023-04-21T17:07:45.069Z,0.88
2023-04-21T17:10:13.108Z,0.73
2023-04-21T17:12:41.446Z,1.10
2023-04-21T17:15:11.724Z,0.93
2023-04-21T17:17:43.350Z,0.80
2023-04-21T17:20:13.313Z,0.70
2023-04-21T17:22:43.382Z,2.05
2023-04-21T17:25:12.119Z,1.25
2023-04-21T17:27:40.854Z,1.08
2023-04-21T17:30:10.618Z,0.98
2023-04-21T17:32:40.669Z,0.93
2023-04-21T17:35:09.493Z,1.00
2023-04-21T17:37:37.619Z,1.42
2023-04-21T17:40:09.633Z,1.25
2023-04-21T17:42:38.042Z,0.88
2023-04-21T17:45:07.662Z,1.50
2023-04-21T17:47:36.020Z,0.70
2023-04-21T17:52:33.060Z,1.52
2023-04-21T17:55:01.870Z,1.95
2023-04-21T17:57:31.377Z,1.33
2023-04-21T17:59:59.520Z,1.55
2023-04-21T18:02:27.912Z,7.55
2023-04-21T18:04:56.089Z,1.38
2023-04-21T18:09:52.484Z,1.35
2023-04-21T18:12:21.145Z,1.38
2023-04-21T18:14:51.407Z,1.02
2023-04-21T18:17:19.602Z,1.13
2023-04-21T18:19:47.735Z,1.50
2023-04-21T18:22:16.387Z,0.90
2023-04-21T18:24:44.771Z,1.40
2023-04-21T18:27:13.945Z,1.10
2023-04-21T18:29:41.921Z,1.27
2023-04-21T18:32:11.271Z,2.20
2023-04-21T18:34:39.733Z,1.60
2023-04-21T18:37:08.090Z,1.25
2023-04-21T18:39:36.332Z,1.02
2023-04-21T18:42:04.554Z,1.23
2023-04-21T18:44:32.661Z,1.40
2023-04-21T18:47:00.799Z,1.27
2023-04-21T18:49:30.237Z,1.10
2023-04-21T18:51:58.211Z,1.45
2023-04-21T18:54:26.313Z,1.00
2023-04-21T18:56:54.809Z,1.50
2023-04-21T19:01:51.809Z,1.13
2023-04-21T19:04:20.163Z,3.05
2023-04-21T19:06:50.357Z,1.45
2023-04-21T19:09:18.469Z,1.85
2023-04-21T19:11:46.991Z,1.38
2023-04-21T19:16:43.101Z,2.92
2023-04-21T19:19:11.273Z,1.38
2023-04-21T19:21:39.262Z,1.30
2023-04-21T19:24:08.976Z,3.50
2023-04-21T19:26:37.388Z,6.75
2023-04-21T19:31:36.656Z,1.73
2023-04-21T19:34:04.784Z,1.08
2023-04-21T19:36:33.414Z,1.10
2023-04-21T19:39:01.705Z,1.13
2023-04-21T19:41:31.163Z,1.63
2023-04-21T19:43:59.118Z,1.27
2023-04-21T19:46:27.969Z,2.55
2023-04-21T19:48:55.995Z,1.83
2023-04-21T19:51:23.995Z,1.80
2023-04-21T19:54:03.093Z,1.40
2023-04-21T19:56:40.148Z,1.55
2023-04-21T19:59:08.538Z,2.55
2023-04-21T20:04:06.177Z,1.50
2023-04-21T20:06:35.534Z,1.65
2023-04-21T20:09:05.885Z,1.45
2023-04-21T20:11:34.440Z,1.40
2023-04-21T20:14:04.326Z,1.42
2023-04-21T20:16:32.988Z,1.17
2023-04-21T20:19:01.262Z,1.80
2023-04-21T20:21:29.638Z,1.80
2023-04-21T20:23:57.692Z,1.80
2023-04-21T20:26:26.019Z,2.75
2023-04-21T20:28:54.137Z,2.55
2023-04-21T20:31:25.499Z,2.03
2023-04-21T20:33:53.944Z,2.05
2023-04-21T20:36:22.276Z,2.17
2023-04-21T20:38:50.511Z,1.98
2023-04-21T20:41:18.589Z,2.58
2023-04-21T20:43:46.791Z,2.50
2023-04-21T20:46:15.755Z,2.58
2023-04-21T20:48:45.296Z,2.38
2023-04-21T20:51:14.615Z,2.80
2023-04-21T20:53:42.621Z,2.15
2023-04-21T20:56:10.873Z,2.70
2023-04-21T20:58:39.139Z,2.45
2023-04-21T21:01:07.198Z,2.85
2023-04-21T21:03:35.384Z,3.03
2023-04-21T21:08:33.060Z,2.33
2023-04-21T21:11:01.205Z,3.78
2023-04-21T21:13:29.350Z,4.05
2023-04-21T21:15:57.305Z,5.05
2023-04-21T21:18:25.388Z,4.65
2023-04-21T21:20:53.346Z,4.45
2023-04-21T21:23:22.729Z,4.72
2023-04-21T21:25:51.633Z,5.53
2023-04-21T21:28:19.935Z,5.22
2023-04-21T21:35:43.685Z,5.60
2023-04-21T21:38:11.991Z,6.38
2023-04-21T21:40:41.469Z,6.68
2023-04-21T21:43:10.381Z,7.95
2023-04-21T21:45:38.806Z,6.43
2023-04-21T21:50:34.784Z,4.75
2023-04-21T21:53:02.974Z,3.65
2023-04-21T21:55:31.276Z,4.97
2023-04-21T21:58:03.456Z,3.70
2023-04-21T22:00:32.007Z,3.78
2023-04-21T22:05:28.298Z,3.08
2023-04-21T22:07:56.978Z,3.03
2023-04-21T22:10:25.400Z,2.72
2023-04-21T22:15:23.863Z,2.10
2023-04-21T22:17:52.044Z,2.78
2023-04-21T22:20:21.880Z,2.35
2023-04-21T22:22:50.022Z,2.03
2023-04-21T22:25:18.461Z,1.77
2023-04-21T22:27:46.619Z,2.30
2023-04-21T22:30:14.842Z,2.03
2023-04-21T22:32:44.211Z,2.67
2023-04-21T22:35:12.486Z,2.08
2023-04-21T22:37:40.849Z,1.60
2023-04-21T22:40:10.716Z,1.63
2023-04-21T22:42:39.680Z,1.88
2023-04-21T22:45:09.248Z,2.10
2023-04-21T22:47:37.367Z,1.98
2023-04-21T22:50:09.334Z,1.75
2023-04-21T22:52:37.587Z,1.67
2023-04-21T22:55:06.202Z,2.20
2023-04-21T22:57:37.288Z,1.88
2023-04-21T23:00:09.760Z,1.50
2023-04-21T23:02:38.138Z,1.63
2023-04-21T23:05:08.578Z,1.83
2023-04-21T23:07:37.079Z,2.17
2023-04-21T23:10:05.744Z,2.13
2023-04-21T23:12:33.865Z,2.22
2023-04-21T23:15:01.862Z,2.08
2023-04-21T23:17:29.841Z,1.80
2023-04-21T23:19:57.813Z,1.73
2023-04-21T23:22:27.188Z,1.90
2023-04-21T23:24:55.260Z,1.70
2023-04-21T23:27:23.339Z,1.73
2023-04-21T23:29:51.321Z,2.05
2023-04-21T23:32:19.424Z,1.45
2023-04-21T23:34:47.442Z,1.50
2023-04-21T23:37:15.550Z,2.28
2023-04-21T23:39:44.900Z,2.42
2023-04-21T23:42:12.986Z,1.63
2023-04-21T23:44:41.299Z,1.48
2023-04-21T23:47:09.339Z,1.90
2023-04-21T23:49:37.907Z,2.15
2023-04-21T23:52:06.023Z,2.88
2023-04-21T23:54:33.982Z,2.45
2023-04-21T23:57:03.484Z,2.42
2023-04-21T23:59:31.506Z,3.00
